Huvudsida
METAR-TAF:

METAR-TAF

Flygplatser :

Medina, Saudiarabien

latitud: 24-33N, longitud: 039-42E, höjd: 654 m

Aktuellt väderrapport

Denna rapport gjordes för 1 timme och 27 minuter sedan, klockan 13:00 UTC
Vind 10 kt från väst
Temperatur 28°C
Fuktighet 10%
Tryck 1016 hPa
Sikt 10 km eller mer
Inga moln under 1 500 m eller inga cumulonimbus

METAR: OEMA 221300Z 26010KT CAVOK 28/M07 Q1016 NOSIG

Tid: 17:27 (14:27 UTC)

Väderprognos

Denna rapport gjordes för 3 timmar och 27 minuter sedan, klockan 11:00 UTC
Prognos gäller från 22 kl. 12 UTC till 23 kl. 18 UTC
Vind 12 kt från väst/sydväst
Sikt 10 km eller mer
Inga moln under 1 500 m eller inga cumulonimbus
Blir
från 22 kl. 20 UTC till 22 kl. 22 UTC
Vind 3 kt varierande vindriktning

TAF: OEMA 221100Z 2212/2318 25012KT CAVOK BECMG 2220/2222 VRB03KT

Aktuella väderrapporter och prognoser från 4000 flygplatser (METAR- och TAF-rapporter).

De tillgängliga stationerna syns som gula och röda prickar på kartan.

För musen över prickarna för att se namnen på stationerna.

Klicka sedan för att få väderrapporter och prognoser.

För att ändra kartan: Klicka på de gröna knapparna med ett svart kors på för att zooma in; den gröna knappen med ett streck på för att zooma ut; eller på de gröna pilarna för angränsande kartor.


METAR-TAF: